Portada
METAR-TAF:

METAR-TAF

Aeroports :

Atirau, Kazakhstan

latitud: 47-07-19N, longitud: 051-49-17E, altitud: -22 m

Observació

L'informe es va fer fa 23 minuts, a les 22:30 UTC
Vent 12 kt del Nord
Temperatura 5°C
Humitat 45%
Pressió 1014 hPa
Visibilitat 10 km o més
sense núvols per sota de 1500 mi sense presència de cumulonimbus.

METAR: UATG 012230Z 36006MPS CAVOK 05/M06 Q1014 R32/CLRD70 NOSIG RMK QFE762/1016

Hora: 04:53 (22:53 UTC)

Pronòstic

L'informe es va fer fa 5 hores i 51 minuts, a les 17:02 UTC
Pronòstic vàlid del 01 a les 18 UTC al 02 a les 18 UTC
Vent 10 kt del Nord/Nord-Oest
Visibilitat: 6000 m
Núvols disperses a una alçada de 3000 ft
Evolucionant progressivament
l' 02 a les 00 UTC al 02 a les 02 UTC
Vent 14 kt del Nord/Nord-Est

TAF: UATG 011702Z 0118/0218 33005MPS 6000 SCT030 TX14/0210Z TN02/0204Z BECMG 0200/0202 03007MPS

Observacions i pronòstics meteorològics de més de 4000 aeroports (METAR i TAF).

Les estacions disponibles són els punts grocs i vermells al mapa.

Posi el ratolí al punt desitjat per veure el nom de l'estació.

Feu clic per veure les observacions i els pronòstics meteorològics.

Per canviar el mapa: feu clic els botons verds amb una creu de color negre per apropar; al botó verd amb un guió per allunyar la imatge; o en les fletxes verdes per a mapes adjacents.


METAR-TAF: